Time,TemperatureF,DewpointF,PressureIn,WindDirection,WindDirectionDegrees,WindSpeedMPH,WindSpeedGustMPH,Humidity,HourlyPrecipIn,Conditions,Clouds,dailyrainin,SoftwareType,DateUTC
2013-09-14 00:00:00,51.3,45.7,29.87,NNW,343,3.0,14.0,81,0.00,,,0.00,Wunderground v.1.13,2013-09-14 04:00:00,
2013-09-14 00:30:00,51.0,45.0,29.87,NW,325,3.0,14.0,80,0.00,,,0.00,Wunderground v.1.13,2013-09-14 04:30:00,
2013-09-14 01:00:00,51.0,44.7,29.86,NW,319,2.0,2.0,79,0.00,,,0.00,Wunderground v.1.13,2013-09-14 05:00:00,
2013-09-14 01:30:00,50.7,44.1,29.87,NNW,336,3.0,3.0,78,0.00,,,0.00,Wunderground v.1.13,2013-09-14 05:30:00,
2013-09-14 02:00:00,50.5,43.6,29.87,ENE,62,1.0,14.0,77,0.00,,,0.00,Wunderground v.1.13,2013-09-14 06:00:00,
2013-09-14 02:30:00,50.4,43.5,29.87,NW,323,1.0,14.0,77,0.00,,,0.00,Wunderground v.1.13,2013-09-14 06:30:00,
2013-09-14 03:00:00,50.2,42.6,29.87,NW,311,1.0,1.0,75,0.00,,,0.00,Wunderground v.1.13,2013-09-14 07:00:00,
2013-09-14 03:30:00,50.1,42.5,29.87,WNW,286,1.0,14.0,75,0.00,,,0.00,Wunderground v.1.13,2013-09-14 07:30:00,
2013-09-14 04:00:00,49.9,42.6,29.88,WNW,286,1.0,14.0,76,0.00,,,0.00,Wunderground v.1.13,2013-09-14 08:00:00,
2013-09-14 04:30:00,49.8,42.9,29.89,West,279,0.0,14.0,77,0.00,,,0.00,Wunderground v.1.13,2013-09-14 08:30:00,
2013-09-14 05:00:00,49.5,42.6,29.90,West,264,1.0,1.0,77,0.00,,,0.00,Wunderground v.1.13,2013-09-14 09:00:00,
2013-09-14 05:30:00,48.9,42.0,29.90,West,262,2.0,2.0,77,0.00,,,0.00,Wunderground v.1.13,2013-09-14 09:30:00,
2013-09-14 06:00:00,48.0,41.5,29.91,West,277,1.0,1.0,78,0.00,,,0.00,Wunderground v.1.13,2013-09-14 10:00:00,
2013-09-14 06:30:00,47.1,41.2,29.91,WSW,258,1.0,1.0,80,0.00,,,0.00,Wunderground v.1.13,2013-09-14 10:30:00,
2013-09-14 07:00:00,46.4,41.2,29.92,WSW,245,1.0,1.0,82,0.00,,,0.00,Wunderground v.1.13,2013-09-14 11:00:00,
2013-09-14 07:30:00,46.0,41.1,29.93,WSW,246,1.0,1.0,83,0.00,,,0.00,Wunderground v.1.13,2013-09-14 11:30:00,
2013-09-14 08:00:00,46.0,41.7,29.94,WSW,246,1.0,14.0,85,0.00,,,0.00,Wunderground v.1.13,2013-09-14 12:00:00,
2013-09-14 08:30:00,47.0,41.8,29.95,SW,223,2.0,14.0,82,0.00,,,0.00,Wunderground v.1.13,2013-09-14 12:30:00,
2013-09-14 09:00:00,48.8,42.2,29.95,NNW,331,3.0,3.0,78,0.00,,,0.00,Wunderground v.1.13,2013-09-14 13:00:00,
2013-09-14 09:30:00,49.9,42.3,29.96,West,260,2.0,2.0,75,0.00,,,0.00,Wunderground v.1.13,2013-09-14 13:30:00,
2013-09-14 10:00:00,51.0,42.6,29.97,West,275,1.0,1.0,73,0.00,,,0.00,Wunderground v.1.13,2013-09-14 14:00:00,
2013-09-14 10:30:00,51.7,43.3,29.96,WSW,242,3.0,14.0,73,0.00,,,0.00,Wunderground v.1.13,2013-09-14 14:30:00,
2013-09-14 11:00:00,52.8,43.3,29.96,SW,231,4.0,4.0,70,0.00,,,0.00,Wunderground v.1.13,2013-09-14 15:00:00,
2013-09-14 11:30:00,53.8,44.6,29.96,WSW,238,3.0,3.0,71,0.00,,,0.00,Wunderground v.1.13,2013-09-14 15:30:00,
2013-09-14 12:00:00,55.0,45.0,29.96,SW,223,3.0,14.0,69,0.00,,,0.00,Wunderground v.1.13,2013-09-14 16:00:00,
2013-09-14 12:30:00,55.4,44.6,29.96,SW,236,2.0,14.0,67,0.00,,,0.00,Wunderground v.1.13,2013-09-14 16:30:00,
2013-09-14 13:00:00,56.9,44.4,29.95,SSW,211,2.0,2.0,63,0.00,,,0.00,Wunderground v.1.13,2013-09-14 17:00:00,
2013-09-14 13:30:00,58.3,44.9,29.95,WSW,239,2.0,14.0,61,0.00,,,0.00,Wunderground v.1.13,2013-09-14 17:30:00,
2013-09-14 14:00:00,59.0,43.8,29.94,SW,225,4.0,14.0,57,0.00,,,0.00,Wunderground v.1.13,2013-09-14 18:00:00,
2013-09-14 14:30:00,59.3,43.6,29.94,WSW,238,4.0,4.0,56,0.00,,,0.00,Wunderground v.1.13,2013-09-14 18:30:00,
2013-09-14 15:00:00,60.7,44.4,29.93,SW,232,3.0,14.0,55,0.00,,,0.00,Wunderground v.1.13,2013-09-14 19:00:00,
2013-09-14 15:30:00,59.3,44.1,29.93,NW,325,2.0,14.0,57,0.00,,,0.00,Wunderground v.1.13,2013-09-14 19:30:00,
2013-09-14 16:00:00,59.6,44.3,29.93,WNW,283,2.0,2.0,57,0.00,,,0.00,Wunderground v.1.13,2013-09-14 20:00:00,
2013-09-14 16:30:00,60.2,44.0,29.93,NNW,327,1.0,14.0,55,0.00,,,0.00,Wunderground v.1.13,2013-09-14 20:30:00,
2013-09-14 17:00:00,62.7,44.3,29.93,WSW,253,2.0,14.0,51,0.00,,,0.00,Wunderground v.1.13,2013-09-14 21:00:00,
2013-09-14 17:30:00,62.7,44.8,29.94,WSW,240,2.0,2.0,52,0.00,,,0.00,Wunderground v.1.13,2013-09-14 21:30:00,
2013-09-14 18:00:00,62.7,44.8,29.94,WSW,246,1.0,1.0,52,0.00,,,0.00,Wunderground v.1.13,2013-09-14 22:00:00,
2013-09-14 18:30:00,62.0,42.6,29.94,WSW,258,0.0,14.0,49,0.00,,,0.00,Wunderground v.1.13,2013-09-14 22:30:00,
2013-09-14 19:00:00,58.3,44.9,29.95,WSW,258,0.0,14.0,61,0.00,,,0.00,Wunderground v.1.13,2013-09-14 23:00:00,
2013-09-14 19:30:00,55.1,45.5,29.95,WSW,258,0.0,14.0,70,0.00,,,0.00,Wunderground v.1.13,2013-09-14 23:30:00,
2013-09-14 20:00:00,53.1,45.7,29.95,WSW,258,0.0,14.0,76,0.00,,,0.00,Wunderground v.1.13,2013-09-15 00:00:00,
2013-09-14 20:30:00,51.6,46.0,29.96,WSW,258,0.0,14.0,81,0.00,,,0.00,Wunderground v.1.13,2013-09-15 00:30:00,
2013-09-14 21:00:00,51.3,45.3,29.97,WSW,258,0.0,14.0,80,0.00,,,0.00,Wunderground v.1.13,2013-09-15 01:00:00,
2013-09-14 21:30:00,51.6,45.6,29.98,SW,234,2.0,2.0,80,0.00,,,0.00,Wunderground v.1.13,2013-09-15 01:30:00,
2013-09-14 22:00:00,51.9,46.3,29.98,SSW,211,2.0,14.0,81,0.00,,,0.00,Wunderground v.1.13,2013-09-15 02:00:00,
2013-09-14 22:30:00,52.2,46.5,29.98,SSW,202,3.0,14.0,81,0.00,,,0.00,Wunderground v.1.13,2013-09-15 02:30:00,
2013-09-14 23:00:00,52.2,46.9,29.98,SSW,207,3.0,14.0,82,0.00,,,0.00,Wunderground v.1.13,2013-09-15 03:00:00,
2013-09-14 23:30:00,51.9,46.9,29.99,SSW,197,2.0,14.0,83,0.00,,,0.00,Wunderground v.1.13,2013-09-15 03:30:00,